createdAt,value
2018-06-28T00:02:26.296Z,17.50
2018-06-28T00:07:17.945Z,17.50
2018-06-28T00:12:08.849Z,17.50
2018-06-28T00:17:00.491Z,17.40
2018-06-28T00:21:51.388Z,17.40
2018-06-28T00:26:43.032Z,17.30
2018-06-28T00:31:34.676Z,17.20
2018-06-28T00:36:26.322Z,17.10
2018-06-28T00:41:17.220Z,17.10
2018-06-28T00:46:08.858Z,17.00
2018-06-28T00:51:00.493Z,16.90
2018-06-28T00:55:52.132Z,16.80
2018-06-28T01:00:43.792Z,16.70
2018-06-28T01:05:34.706Z,16.70
2018-06-28T01:10:25.606Z,16.70
2018-06-28T01:15:17.243Z,16.60
2018-06-28T01:20:08.881Z,16.50
2018-06-28T01:24:59.781Z,16.50
2018-06-28T01:29:51.426Z,16.40
2018-06-28T01:34:43.059Z,16.30
2018-06-28T01:39:34.703Z,16.20
2018-06-28T01:44:26.364Z,16.20
2018-06-28T01:49:17.250Z,16.10
2018-06-28T01:54:08.889Z,16.00
2018-06-28T01:59:00.527Z,16.00
2018-06-28T02:03:52.171Z,15.90
2018-06-28T02:08:43.094Z,15.90
2018-06-28T02:13:34.021Z,15.80
2018-06-28T02:18:24.923Z,15.80
2018-06-28T02:23:15.810Z,15.70
2018-06-28T02:28:08.179Z,15.60
2018-06-28T02:32:59.085Z,15.60
2018-06-28T02:37:49.984Z,15.50
2018-06-28T02:42:40.891Z,15.50
2018-06-28T02:47:31.798Z,15.40
2018-06-28T02:52:22.691Z,15.30
2018-06-28T02:57:13.588Z,15.30
2018-06-28T03:02:04.528Z,15.20
2018-06-28T03:06:55.421Z,15.20
2018-06-28T03:11:47.055Z,15.10
2018-06-28T03:16:38.704Z,15.00
2018-06-28T03:21:29.609Z,15.00
2018-06-28T03:26:21.261Z,14.90
2018-06-28T03:31:12.168Z,14.90
2018-06-28T03:36:03.820Z,14.90
2018-06-28T03:40:54.715Z,14.80
2018-06-28T03:45:46.352Z,14.80
2018-06-28T03:50:37.988Z,14.80
2018-06-28T03:55:29.664Z,14.80
2018-06-28T04:00:20.581Z,14.80
2018-06-28T04:05:11.477Z,14.80
2018-06-28T04:10:02.384Z,14.80
2018-06-28T04:14:54.044Z,14.80
2018-06-28T04:19:44.948Z,14.80
2018-06-28T04:24:35.848Z,14.80
2018-06-28T04:29:27.496Z,14.90
2018-06-28T04:34:19.136Z,15.00
2018-06-28T04:39:10.027Z,14.90
2018-06-28T04:44:00.960Z,15.00
2018-06-28T04:48:52.611Z,15.10
2018-06-28T04:53:43.516Z,15.10
2018-06-28T04:58:35.177Z,15.20
2018-06-28T05:03:26.076Z,15.20
2018-06-28T05:08:17.719Z,15.40
2018-06-28T05:13:08.692Z,15.40
2018-06-28T05:17:59.594Z,15.50
2018-06-28T05:22:50.478Z,15.60
2018-06-28T05:27:41.388Z,15.70
2018-06-28T05:32:33.019Z,16.00
2018-06-28T05:37:24.675Z,16.10
2018-06-28T05:42:15.567Z,16.10
2018-06-28T05:52:25.004Z,16.40
2018-06-28T05:57:15.904Z,16.60
2018-06-28T06:02:06.821Z,16.80
2018-06-28T06:06:57.707Z,16.90
2018-06-28T06:11:49.339Z,17.20
2018-06-28T06:16:40.983Z,17.40
2018-06-28T06:21:32.636Z,17.50
2018-06-28T06:26:23.551Z,17.50
2018-06-28T06:31:14.447Z,17.60
2018-06-28T06:36:06.079Z,18.00
2018-06-28T06:40:57.714Z,18.20
2018-06-28T06:45:49.363Z,18.30
2018-06-28T06:50:40.995Z,18.50
2018-06-28T06:55:32.630Z,18.70
2018-06-28T07:00:24.324Z,18.90
2018-06-28T07:05:15.224Z,18.90
2018-06-28T07:10:06.150Z,19.10
2018-06-28T07:14:57.067Z,19.30
2018-06-28T07:19:48.071Z,19.60
2018-06-28T07:24:38.971Z,19.90
2018-06-28T07:29:29.859Z,20.20
2018-06-28T07:34:20.749Z,20.50
2018-06-28T07:39:11.657Z,20.80
2018-06-28T07:44:02.593Z,21.20
2018-06-28T07:48:53.482Z,21.50
2018-06-28T07:53:44.430Z,21.90
2018-06-28T07:58:35.351Z,22.20
2018-06-28T08:03:26.248Z,22.40
2018-06-28T08:08:17.156Z,22.60
2018-06-28T08:13:08.068Z,22.80
2018-06-28T08:17:58.979Z,22.90
2018-06-28T08:22:49.879Z,23.10
2018-06-28T08:27:41.520Z,23.40
2018-06-28T08:32:33.163Z,23.50
2018-06-28T08:37:31.119Z,23.50
2018-06-28T08:42:22.010Z,23.60
2018-06-28T08:47:13.653Z,23.80
2018-06-28T08:52:04.655Z,23.80
2018-06-28T08:56:55.569Z,23.90
2018-06-28T09:01:46.451Z,24.00
2018-06-28T09:06:37.351Z,24.10
2018-06-28T09:11:28.983Z,24.20
2018-06-28T09:16:19.879Z,24.20
2018-06-28T09:21:10.836Z,24.30
2018-06-28T09:26:02.463Z,24.50
2018-06-28T09:30:54.095Z,24.60
2018-06-28T09:35:45.740Z,24.70
2018-06-28T09:40:37.380Z,24.80
2018-06-28T09:45:29.010Z,24.80
2018-06-28T09:50:20.648Z,24.90
2018-06-28T09:55:12.292Z,25.00
2018-06-28T10:00:03.184Z,25.00
2018-06-28T10:04:54.083Z,25.00
2018-06-28T10:09:44.980Z,25.10
2018-06-28T10:14:35.916Z,25.20
2018-06-28T10:19:26.770Z,25.30
2018-06-28T10:24:18.417Z,25.50
2018-06-28T10:29:09.315Z,25.50
2018-06-28T10:34:00.217Z,25.70
2018-06-28T10:38:51.145Z,25.80
2018-06-28T10:43:42.044Z,26.00
2018-06-28T10:48:32.939Z,26.10
2018-06-28T10:53:23.913Z,26.30
2018-06-28T10:58:15.553Z,26.70
2018-06-28T11:03:07.199Z,26.90
2018-06-28T11:07:58.095Z,26.90
2018-06-28T11:12:49.739Z,27.40
2018-06-28T11:17:41.375Z,27.60
2018-06-28T11:22:33.011Z,27.80
2018-06-28T11:27:24.684Z,28.00
2018-06-28T11:32:15.589Z,28.00
2018-06-28T11:37:06.491Z,28.20
2018-06-28T11:41:58.145Z,28.50
2018-06-28T11:46:49.032Z,28.50
2018-06-28T11:51:40.708Z,28.90
2018-06-28T11:56:31.607Z,28.90
2018-06-28T12:01:22.558Z,29.20
2018-06-28T12:06:13.448Z,29.40
2018-06-28T12:11:04.357Z,29.60
2018-06-28T12:15:55.260Z,29.80
2018-06-28T12:20:46.900Z,30.10
2018-06-28T12:25:38.542Z,30.10
2018-06-28T12:30:30.179Z,30.10
2018-06-28T12:35:21.819Z,30.00
2018-06-28T12:40:12.711Z,30.00
2018-06-28T12:45:03.611Z,30.00
2018-06-28T12:49:54.494Z,30.10
2018-06-28T12:54:45.393Z,30.20
2018-06-28T12:59:36.295Z,30.40
2018-06-28T13:04:27.939Z,30.90
2018-06-28T13:09:19.575Z,31.10
2018-06-28T13:14:11.216Z,31.30
2018-06-28T13:19:02.113Z,31.30
2018-06-28T13:23:53.777Z,31.80
2018-06-28T13:28:44.678Z,31.80
2018-06-28T13:33:36.322Z,32.00
2018-06-28T13:38:27.211Z,32.00
2018-06-28T13:43:18.100Z,32.00
2018-06-28T13:48:09.010Z,31.90
2018-06-28T13:52:59.939Z,31.60
2018-06-28T13:57:50.932Z,31.40
2018-06-28T14:02:41.822Z,31.10
2018-06-28T14:07:33.455Z,30.50
2018-06-28T14:12:25.083Z,30.20
2018-06-28T14:17:16.728Z,29.90
2018-06-28T14:22:08.408Z,29.60
2018-06-28T14:26:59.286Z,29.60
2018-06-28T14:31:50.940Z,29.00
2018-06-28T14:36:41.848Z,29.00
2018-06-28T14:41:32.749Z,28.80
2018-06-28T14:46:24.401Z,28.50
2018-06-28T14:51:15.300Z,28.50
2018-06-28T14:56:06.933Z,28.50
2018-06-28T15:00:58.576Z,28.70
2018-06-28T15:05:50.212Z,28.90
2018-06-28T15:10:41.847Z,29.00
2018-06-28T15:15:33.489Z,29.00
2018-06-28T15:20:25.114Z,29.00
2018-06-28T15:25:16.756Z,28.90
2018-06-28T15:30:08.387Z,28.90
2018-06-28T15:35:00.040Z,28.90
2018-06-28T15:39:50.930Z,28.80
2018-06-28T15:44:42.563Z,28.70
2018-06-28T15:49:33.460Z,28.70
2018-06-28T15:54:24.362Z,28.60
2018-06-28T15:59:15.271Z,28.60
2018-06-28T16:04:06.171Z,28.50
2018-06-28T16:08:57.066Z,28.40
2018-06-28T16:13:48.707Z,28.10
2018-06-28T16:18:40.339Z,28.00
2018-06-28T16:23:31.978Z,27.90
2018-06-28T16:28:22.883Z,27.90
2018-06-28T16:33:14.506Z,27.70
2018-06-28T16:38:05.400Z,27.70
2018-06-28T16:42:57.345Z,27.60
2018-06-28T16:47:48.239Z,27.50
2018-06-28T16:52:47.220Z,27.40
2018-06-28T16:57:38.130Z,27.30
2018-06-28T17:02:29.766Z,27.20
2018-06-28T17:07:21.407Z,27.10
2018-06-28T17:12:13.031Z,27.00
2018-06-28T17:17:04.686Z,26.90
2018-06-28T17:21:56.305Z,26.80
2018-06-28T17:26:47.948Z,26.70
2018-06-28T17:31:39.596Z,26.60
2018-06-28T17:36:30.500Z,26.50
2018-06-28T17:41:21.407Z,26.40
2018-06-28T17:46:13.057Z,26.30
2018-06-28T17:51:04.015Z,26.20
2018-06-28T17:55:55.612Z,26.10
2018-06-28T18:00:46.506Z,26.10
2018-06-28T18:05:37.422Z,26.00
2018-06-28T18:10:29.072Z,25.90
2018-06-28T18:15:20.754Z,25.90
2018-06-28T18:20:11.653Z,25.80
2018-06-28T18:25:02.538Z,25.80
2018-06-28T18:29:54.182Z,25.60
2018-06-28T18:34:45.818Z,25.50
2018-06-28T18:39:37.483Z,25.50
2018-06-28T18:44:28.406Z,25.50
2018-06-28T18:49:19.292Z,25.30
2018-06-28T18:54:10.927Z,25.10
2018-06-28T18:59:02.567Z,25.00
2018-06-28T19:03:53.474Z,25.00
2018-06-28T19:08:45.122Z,24.80
2018-06-28T19:13:36.032Z,24.80
2018-06-28T19:18:27.675Z,24.60
2018-06-28T19:28:37.878Z,24.40
2018-06-28T19:33:28.783Z,24.40
2018-06-28T19:38:20.465Z,24.20
2018-06-28T19:43:12.054Z,24.10
2018-06-28T19:48:03.683Z,24.00
2018-06-28T19:52:55.327Z,23.90
2018-06-28T19:57:46.968Z,23.80
2018-06-28T20:02:44.874Z,23.70
2018-06-28T20:07:35.795Z,23.60
2018-06-28T20:12:26.694Z,23.50
2018-06-28T20:17:32.575Z,23.40
2018-06-28T20:22:23.473Z,23.30
2018-06-28T20:27:30.091Z,23.00
2018-06-28T20:37:41.844Z,22.80
2018-06-28T20:42:32.744Z,22.70
2018-06-28T20:47:23.639Z,22.60
2018-06-28T20:52:15.266Z,22.30
2018-06-28T20:57:06.902Z,22.20
2018-06-28T21:01:58.538Z,22.10
2018-06-28T21:06:50.167Z,22.00
2018-06-28T21:11:41.794Z,21.90
2018-06-28T21:16:32.691Z,21.80
2018-06-28T21:21:23.587Z,21.70
2018-06-28T21:26:14.503Z,21.60
2018-06-28T21:31:05.439Z,21.50
2018-06-28T21:35:56.334Z,21.40
2018-06-28T21:40:47.241Z,21.30
2018-06-28T21:45:38.134Z,21.20
2018-06-28T21:50:29.783Z,21.00
2018-06-28T21:55:20.773Z,21.00
2018-06-28T22:00:11.583Z,20.90
2018-06-28T22:05:02.487Z,20.80
2018-06-28T22:09:53.395Z,20.70
2018-06-28T22:14:44.305Z,20.50
2018-06-28T22:19:35.195Z,20.40
2018-06-28T22:24:26.110Z,20.30
2018-06-28T22:29:17.034Z,20.20
2018-06-28T22:34:07.950Z,20.10
2018-06-28T22:38:58.839Z,20.00
2018-06-28T22:43:50.484Z,19.80
2018-06-28T22:48:42.115Z,19.70
2018-06-28T22:53:33.752Z,19.60
2018-06-28T22:58:25.386Z,19.50
2018-06-28T23:03:17.020Z,19.40
2018-06-28T23:08:08.651Z,19.30
2018-06-28T23:12:59.543Z,19.30
2018-06-28T23:17:50.439Z,19.20
2018-06-28T23:22:41.335Z,19.10
2018-06-28T23:27:32.232Z,19.00
2018-06-28T23:32:23.862Z,18.80
2018-06-28T23:37:15.491Z,18.70
2018-06-28T23:42:07.167Z,18.60
2018-06-28T23:46:58.054Z,18.60
2018-06-28T23:51:49.682Z,18.50
2018-06-28T23:56:40.567Z,18.40
